Time;durP1;ratioP1;P1;durP2;ratioP2;P2;SDS_P1;SDS_P2;PMS_P1;PMS_P2;Temp;Humidity;BMP_temperature;BMP_pressure;BME280_temperature;BME280_humidity;BME280_pressure;Samples;Min_cycle;Max_cycle;Signal;HPM_P1;HPM_P2
2022/05/14 00:06:22;;;;;;;30.08;14.25;;;10.60;99.90;;;;;;21199902;27;20092;-53
2022/05/14 00:16:26;;;;;;;28.80;17.75;;;10.60;99.90;;;;;;21220416;27;20031;-54
2022/05/14 00:26:28;;;;;;;22.98;14.38;;;10.60;99.90;;;;;;21161081;27;20093;-52
2022/05/14 00:36:31;;;;;;;34.30;18.55;;;11.00;99.90;;;;;;21199604;27;20035;-53
2022/05/14 00:46:46;;;;;;;26.38;15.00;;;10.80;99.90;;;;;;21150831;27;20084;-53
2022/05/14 00:56:56;;;;;;;28.25;17.88;;;10.60;99.90;;;;;;21195057;27;20035;-58
2022/05/14 01:07:07;;;;;;;28.60;16.60;;;10.60;99.90;;;;;;21188231;27;20076;-53
2022/05/14 01:17:12;;;;;;;30.48;17.50;;;10.70;99.90;;;;;;21148959;27;20035;-50
2022/05/14 01:27:17;;;;;;;29.25;16.98;;;10.70;99.90;;;;;;21169770;27;20107;-54
2022/05/14 01:37:20;;;;;;;23.67;14.50;;;10.50;99.90;;;;;;21162064;27;20040;-53
2022/05/14 01:47:24;;;;;;;28.38;14.98;;;10.60;99.90;;;;;;21178061;27;20088;-58
2022/05/14 01:57:28;;;;;;;18.23;12.95;;;10.70;99.90;;;;;;21142633;27;20463;-58
2022/05/14 02:07:31;;;;;;;22.38;12.88;;;10.50;99.90;;;;;;21164557;27;20095;-52
2022/05/14 02:17:33;;;;;;;19.95;11.15;;;10.50;99.90;;;;;;21199630;28;20380;-53
2022/05/14 02:27:37;;;;;;;21.08;12.23;;;10.40;99.90;;;;;;21178135;28;20035;-51
2022/05/14 02:37:40;;;;;;;21.98;11.35;;;10.30;99.90;;;;;;21182786;27;20031;-51
2022/05/14 02:47:42;;;;;;;21.40;12.40;;;10.10;99.90;;;;;;21189025;27;20123;-54
2022/05/14 02:57:45;;;;;;;23.08;13.00;;;10.20;99.90;;;;;;21216332;27;20048;-53
2022/05/14 03:07:48;;;;;;;18.35;11.85;;;10.10;99.90;;;;;;21203860;27;20035;-52
2022/05/14 03:17:51;;;;;;;15.98;8.82;;;10.00;99.90;;;;;;21204405;27;20035;-53
2022/05/14 03:27:53;;;;;;;18.67;10.55;;;10.00;99.90;;;;;;21189536;27;20064;-53
2022/05/14 03:37:56;;;;;;;17.38;9.68;;;10.00;99.90;;;;;;21171035;27;20409;-58
2022/05/14 03:47:58;;;;;;;13.77;8.82;;;9.90;99.90;;;;;;21149837;27;20084;-51
2022/05/14 03:58:02;;;;;;;14.77;8.90;;;10.10;99.90;;;;;;21205513;27;20032;-53
2022/05/14 04:08:06;;;;;;;19.05;10.38;;;10.00;99.90;;;;;;21143078;27;20388;-53
2022/05/14 04:18:09;;;;;;;20.52;12.68;;;10.10;99.90;;;;;;21154197;27;20044;-53
2022/05/14 04:28:13;;;;;;;18.42;10.57;;;10.30;99.90;;;;;;21154518;27;20039;-53
2022/05/14 04:38:19;;;;;;;11.80;7.72;;;10.70;99.90;;;;;;21174642;27;20032;-58
2022/05/14 04:48:22;;;;;;;11.90;6.65;;;10.90;99.90;;;;;;21211294;27;20055;-57
2022/05/14 04:58:25;;;;;;;17.55;7.70;;;11.10;99.90;;;;;;21166582;27;20564;-54
2022/05/14 05:08:31;;;;;;;14.00;7.35;;;11.50;99.90;;;;;;21206868;27;20047;-49
2022/05/14 05:18:37;;;;;;;7.93;4.90;;;11.80;99.90;;;;;;21179761;27;20454;-54
2022/05/14 05:28:40;;;;;;;11.55;5.65;;;12.20;99.90;;;;;;21215862;27;20483;-52
2022/05/14 05:38:42;;;;;;;9.32;5.82;;;12.70;99.90;;;;;;21191012;27;20042;-50
2022/05/14 05:48:45;;;;;;;8.80;5.05;;;13.00;99.90;;;;;;21173167;27;20047;-58
2022/05/14 05:58:48;;;;;;;11.65;6.22;;;13.50;99.90;;;;;;21192850;27;20057;-59
2022/05/14 06:08:51;;;;;;;11.63;7.18;;;14.60;99.90;;;;;;21180786;27;20036;-59
2022/05/14 06:18:53;;;;;;;9.65;5.93;;;15.90;99.90;;;;;;21199224;27;20091;-59
2022/05/14 06:28:56;;;;;;;11.32;6.68;;;16.50;99.90;;;;;;21214876;27;20038;-56
2022/05/14 06:38:58;;;;;;;10.70;6.45;;;17.30;99.90;;;;;;21217195;27;20032;-56
2022/05/14 06:49:02;;;;;;;10.95;6.93;;;17.70;99.90;;;;;;21224450;27;20047;-60
2022/05/14 06:59:06;;;;;;;12.93;7.30;;;18.40;99.90;;;;;;21207364;27;20065;-59
2022/05/14 07:09:13;;;;;;;13.45;6.95;;;18.30;99.90;;;;;;21199523;27;20365;-60
2022/05/14 07:19:17;;;;;;;13.83;7.50;;;18.20;99.90;;;;;;21207023;27;20088;-61
2022/05/14 07:29:23;;;;;;;8.05;5.78;;;18.60;99.90;;;;;;21201071;27;20103;-60
2022/05/14 07:39:33;;;;;;;8.80;6.45;;;19.20;99.90;;;;;;21220548;27;20027;-60
2022/05/14 07:49:36;;;;;;;9.30;6.20;;;19.60;99.90;;;;;;21179053;27;20047;-57
2022/05/14 07:59:40;;;;;;;12.75;6.80;;;19.40;99.90;;;;;;21182208;27;20027;-61
2022/05/14 08:09:43;;;;;;;10.63;7.00;;;19.60;99.90;;;;;;21187216;27;20445;-61
2022/05/14 08:19:46;;;;;;;10.10;6.40;;;20.20;99.90;;;;;;21210145;27;20035;-57
2022/05/14 08:29:49;;;;;;;9.82;7.00;;;20.60;99.90;;;;;;21172922;27;20057;-61
2022/05/14 08:39:51;;;;;;;10.82;7.20;;;20.50;99.90;;;;;;21202753;27;20065;-62
2022/05/14 08:49:56;;;;;;;9.52;7.60;;;20.90;99.90;;;;;;21204669;27;20100;-58
2022/05/14 09:00:00;;;;;;;9.38;7.20;;;22.20;99.90;;;;;;21148022;28;20032;-61
2022/05/14 09:10:08;;;;;;;11.82;7.45;;;23.30;99.90;;;;;;21149181;27;20440;-62
2022/05/14 09:20:23;;;;;;;7.33;6.60;;;23.70;99.90;;;;;;21196048;27;20112;-61
2022/05/14 09:30:40;;;;;;;13.50;7.78;;;23.10;99.90;;;;;;21202978;27;20111;-62
2022/05/14 09:40:46;;;;;;;11.25;8.80;;;21.60;99.90;;;;;;21202954;27;20027;-61
2022/05/14 09:50:58;;;;;;;12.20;9.30;;;20.30;99.90;;;;;;21180028;27;20175;-55
2022/05/14 10:01:29;;;;;;;14.65;8.93;;;19.10;99.90;;;;;;21172623;27;20035;-60
2022/05/14 10:11:36;;;;;;;16.40;10.17;;;18.20;99.90;;;;;;21119016;28;20048;-52
2022/05/14 10:21:45;;;;;;;15.80;10.80;;;17.50;99.90;;;;;;21183871;28;20333;-60
2022/05/14 10:32:00;;;;;;;15.83;10.37;;;17.00;99.90;;;;;;21194986;28;20042;-61
2022/05/14 10:42:33;;;;;;;14.98;9.52;;;18.20;99.90;;;;;;21166049;28;20051;-62
2022/05/14 10:52:40;;;;;;;10.27;8.20;;;21.00;99.90;;;;;;21136638;28;20494;-62
2022/05/14 11:03:00;;;;;;;11.18;8.45;;;22.50;99.90;;;;;;21196186;27;20065;-63
2022/05/14 11:13:19;;;;;;;11.88;9.52;;;23.70;99.90;;;;;;21209354;27;20115;-64
2022/05/14 11:23:23;;;;;;;12.30;9.40;;;25.20;99.90;;;;;;21201734;27;20084;-58
2022/05/14 11:33:26;;;;;;;10.80;9.27;;;25.40;99.90;;;;;;21165691;27;20039;-57
2022/05/14 11:43:33;;;;;;;11.55;9.88;;;24.80;99.90;;;;;;21186572;27;20055;-66
2022/05/14 11:53:53;;;;;;;13.20;11.75;;;25.40;99.90;;;;;;21222970;27;20441;-66
2022/05/14 12:04:01;;;;;;;15.65;10.93;;;25.40;99.90;;;;;;21179279;27;20560;-58
2022/05/14 12:14:12;;;;;;;12.93;10.88;;;24.50;99.90;;;;;;21221120;27;20035;-58
2022/05/14 12:24:39;;;;;;;15.85;11.07;;;24.30;99.90;;;;;;21210243;27;20061;-62
2022/05/14 12:34:41;;;;;;;14.97;10.90;;;23.50;99.90;;;;;;20954261;28;20173;-63
2022/05/14 12:44:47;;;;;;;12.57;10.75;;;23.70;99.90;;;;;;20920027;28;20483;-62
2022/05/14 12:55:11;;;;;;;14.15;11.68;;;23.10;99.90;;;;;;20956880;28;20068;-61
2022/05/14 13:05:27;;;;;;;17.58;13.40;;;22.80;99.90;;;;;;21011707;27;20035;-61
2022/05/14 13:15:40;;;;;;;13.95;10.80;;;21.50;99.90;;;;;;21202567;27;20112;-62
2022/05/14 13:25:42;;;;;;;14.32;11.23;;;21.10;99.90;;;;;;21166132;27;20035;-62
2022/05/14 13:46:18;;;;;;;12.93;10.30;;;20.90;99.90;;;;;;21181001;27;20059;-54
2022/05/14 13:56:21;;;;;;;12.82;10.30;;;20.80;99.90;;;;;;21185397;27;20035;-61
2022/05/14 14:06:35;;;;;;;14.05;10.45;;;21.80;99.90;;;;;;21161879;27;20166;-62
2022/05/14 14:16:39;;;;;;;18.05;11.50;;;22.00;99.90;;;;;;21159504;28;20113;-62
2022/05/14 14:26:48;;;;;;;19.08;12.77;;;22.80;99.90;;;;;;21142915;28;20089;-62
2022/05/14 14:36:51;;;;;;;13.25;10.43;;;23.10;99.90;;;;;;21172290;27;20039;-63
2022/05/14 14:46:53;;;;;;;11.18;8.85;;;22.90;99.90;;;;;;21191344;27;20047;-62
2022/05/14 14:56:56;;;;;;;11.35;8.60;;;25.40;99.60;;;;;;21156698;27;20035;-62
2022/05/14 15:07:02;;;;;;;12.38;8.98;;;25.50;99.30;;;;;;21163461;27;20077;-63
2022/05/14 15:17:05;;;;;;;12.45;8.95;;;25.40;97.80;;;;;;21170917;27;20060;-62
2022/05/14 15:27:13;;;;;;;11.43;9.23;;;23.10;99.90;;;;;;21217005;27;20039;-55
2022/05/14 15:37:19;;;;;;;13.07;8.77;;;21.70;99.90;;;;;;21207408;27;20099;-61
2022/05/14 15:47:24;;;;;;;11.68;7.53;;;20.90;99.90;;;;;;21150096;28;20416;-62
2022/05/14 15:57:27;;;;;;;10.90;8.60;;;21.00;99.90;;;;;;21182578;27;20043;-54
2022/05/14 16:07:32;;;;;;;13.20;9.38;;;20.30;99.90;;;;;;21194847;27;20061;-61
2022/05/14 16:17:34;;;;;;;14.10;9.55;;;19.80;99.90;;;;;;21156837;27;20039;-53
2022/05/14 16:27:37;;;;;;;14.63;9.13;;;19.30;99.90;;;;;;21188282;27;20063;-61
2022/05/14 16:37:41;;;;;;;17.02;9.60;;;19.20;99.90;;;;;;21205216;27;20039;-61
2022/05/14 16:47:44;;;;;;;14.07;9.70;;;19.00;99.90;;;;;;21210341;27;20467;-61
2022/05/14 16:57:48;;;;;;;11.82;8.57;;;18.60;99.90;;;;;;21153700;27;20034;-61
2022/05/14 17:07:52;;;;;;;11.52;8.95;;;18.30;99.90;;;;;;21212403;27;20027;-60
2022/05/14 17:17:55;;;;;;;13.77;9.95;;;18.00;99.90;;;;;;21178238;27;20089;-61
2022/05/14 17:27:59;;;;;;;13.07;8.25;;;17.50;99.90;;;;;;21170623;27;20479;-60
2022/05/14 17:48:23;;;;;;;15.43;9.57;;;16.40;99.90;;;;;;21171128;27;20055;-52
2022/05/14 17:58:26;;;;;;;14.98;10.45;;;15.70;99.90;;;;;;21199652;27;20050;-60
2022/05/14 18:08:32;;;;;;;17.38;11.20;;;15.20;99.90;;;;;;21184114;27;20073;-61
2022/05/14 18:18:35;;;;;;;14.25;9.85;;;15.10;99.90;;;;;;21149872;28;20542;-60
2022/05/14 18:28:42;;;;;;;15.60;10.23;;;15.30;99.90;;;;;;21127831;28;20032;-54
2022/05/14 18:38:53;;;;;;;13.80;9.48;;;15.20;99.90;;;;;;21188217;28;20496;-60
2022/05/14 18:48:56;;;;;;;15.10;9.77;;;15.10;99.90;;;;;;21181735;28;20048;-52
2022/05/14 18:59:00;;;;;;;15.77;10.13;;;14.80;99.90;;;;;;21148170;28;20043;-59
2022/05/14 19:09:03;;;;;;;15.60;11.02;;;14.30;99.90;;;;;;21192757;28;20437;-53
2022/05/14 19:19:06;;;;;;;20.85;12.93;;;13.80;99.90;;;;;;21193966;27;20039;-59
2022/05/14 19:29:12;;;;;;;23.48;13.30;;;13.30;99.90;;;;;;21185690;27;20039;-59
2022/05/14 19:39:17;;;;;;;23.83;13.50;;;12.90;99.90;;;;;;21193910;27;20088;-51
2022/05/14 19:49:22;;;;;;;21.75;13.73;;;12.90;99.90;;;;;;21158231;27;20081;-53
2022/05/14 19:59:25;;;;;;;27.88;14.77;;;12.80;99.90;;;;;;21195104;27;20488;-53
2022/05/14 20:09:28;;;;;;;22.95;14.88;;;12.70;99.90;;;;;;21163223;27;20027;-59
2022/05/14 20:29:55;;;;;;;26.25;17.92;;;12.20;99.90;;;;;;21200184;27;20100;-59
2022/05/14 20:39:57;;;;;;;24.92;15.80;;;12.10;99.90;;;;;;21202132;27;20035;-59
2022/05/14 20:50:00;;;;;;;27.40;16.45;;;11.90;99.90;;;;;;21075828;28;20052;-59
2022/05/14 21:00:06;;;;;;;29.88;19.10;;;11.80;99.90;;;;;;21110377;28;20271;-59
2022/05/14 21:10:13;;;;;;;33.22;18.40;;;11.60;99.90;;;;;;21114931;28;20032;-59
2022/05/14 21:20:17;;;;;;;33.50;21.10;;;11.60;99.90;;;;;;21110752;28;20394;-59
2022/05/14 21:30:21;;;;;;;37.65;25.05;;;11.60;99.90;;;;;;21113823;28;20624;-59
2022/05/14 21:40:27;;;;;;;33.95;21.17;;;11.50;99.90;;;;;;21113124;28;20036;-59
2022/05/14 21:50:31;;;;;;;36.38;23.85;;;11.70;99.90;;;;;;21146644;27;20128;-53
2022/05/14 22:00:34;;;;;;;35.90;20.42;;;11.70;99.90;;;;;;21129719;28;20438;-51
2022/05/14 22:10:36;;;;;;;35.28;23.58;;;11.50;99.90;;;;;;21150287;27;20044;-53
2022/05/14 22:20:41;;;;;;;38.70;22.75;;;11.60;99.90;;;;;;21128805;28;20372;-52
2022/05/14 22:30:45;;;;;;;39.20;21.25;;;11.40;99.90;;;;;;21174413;28;20043;-58
2022/05/14 22:40:56;;;;;;;36.42;21.42;;;11.40;99.90;;;;;;21185035;28;20032;-59
2022/05/14 22:51:02;;;;;;;35.40;20.40;;;11.40;99.90;;;;;;21108121;28;20074;-54
2022/05/14 23:01:08;;;;;;;30.73;19.27;;;11.20;99.90;;;;;;21074504;28;20040;-51
2022/05/14 23:11:11;;;;;;;29.98;18.92;;;11.20;99.90;;;;;;21037286;28;20044;-51
2022/05/14 23:21:14;;;;;;;31.85;19.95;;;11.10;99.90;;;;;;21019745;28;20044;-58
2022/05/14 23:31:16;;;;;;;33.13;19.15;;;11.00;99.90;;;;;;20993708;28;20067;-53
2022/05/14 23:41:20;;;;;;;32.13;19.00;;;11.00;99.90;;;;;;21026160;28;20512;-52
2022/05/14 23:51:23;;;;;;;39.13;25.33;;;10.90;99.90;;;;;;21059448;28;20031;-51
